createdAt,value
2019-05-01T00:01:23.294Z,100905.47
2019-05-01T00:04:05.450Z,100903.18
2019-05-01T00:06:35.814Z,100894.13
2019-05-01T00:09:09.688Z,100892.48
2019-05-01T00:11:39.321Z,100891.36
2019-05-01T00:14:09.189Z,100895.83
2019-05-01T00:16:37.845Z,100896.72
2019-05-01T00:19:06.854Z,100899.03
2019-05-01T00:21:35.568Z,100891.80
2019-05-01T00:24:04.193Z,100897.39
2019-05-01T00:26:33.208Z,100895.06
2019-05-01T00:29:01.814Z,100893.77
2019-05-01T00:31:30.429Z,100889.05
2019-05-01T00:33:59.034Z,100889.92
2019-05-01T00:36:29.437Z,100894.11
2019-05-01T00:39:01.292Z,100893.41
2019-05-01T00:41:30.164Z,100899.09
2019-05-01T00:43:58.826Z,100898.67
2019-05-01T00:46:29.229Z,100893.24
2019-05-01T00:48:58.208Z,100890.58
2019-05-01T00:51:27.324Z,100890.39
2019-05-01T00:53:55.942Z,100884.81
2019-05-01T00:56:26.131Z,100896.74
2019-05-01T00:59:08.320Z,100893.78
2019-05-01T01:01:54.555Z,100881.05
2019-05-01T01:04:23.181Z,100869.26
2019-05-01T01:06:52.186Z,100866.02
2019-05-01T01:09:21.099Z,100862.12
2019-05-01T01:11:49.810Z,100863.66
2019-05-01T01:14:18.531Z,100861.26
2019-05-01T01:16:47.089Z,100863.03
2019-05-01T01:19:15.648Z,100858.91
2019-05-01T01:21:44.260Z,100855.36
2019-05-01T01:24:13.232Z,100847.06
2019-05-01T01:26:41.907Z,100847.91
2019-05-01T01:29:10.633Z,100845.14
2019-05-01T01:31:39.243Z,100838.02
2019-05-01T01:34:07.866Z,100828.78
2019-05-01T01:36:36.434Z,100830.13
2019-05-01T01:39:06.638Z,100833.45
2019-05-01T01:41:35.956Z,100831.22
2019-05-01T01:44:07.523Z,100822.83
2019-05-01T01:46:43.762Z,100819.23
2019-05-01T01:49:12.759Z,100823.73
2019-05-01T01:51:41.546Z,100821.36
2019-05-01T01:54:10.468Z,100826.25
2019-05-01T01:56:39.285Z,100818.34
2019-05-01T01:59:08.000Z,100814.29
2019-05-01T02:01:38.651Z,100823.06
2019-05-01T02:04:18.082Z,100816.58
2019-05-01T02:06:47.571Z,100818.78
2019-05-01T02:09:16.459Z,100809.93
2019-05-01T02:11:47.219Z,100794.91
2019-05-01T02:14:15.933Z,100795.16
2019-05-01T02:16:44.569Z,100798.99
2019-05-01T02:19:13.449Z,100795.32
2019-05-01T02:21:41.995Z,100795.38
2019-05-01T02:24:10.982Z,100795.72
2019-05-01T02:26:50.250Z,100798.45
2019-05-01T02:29:23.850Z,100794.80
2019-05-01T02:31:54.819Z,100779.40
2019-05-01T02:34:25.991Z,100775.50
2019-05-01T02:36:59.620Z,100781.27
2019-05-01T02:39:30.742Z,100781.14
2019-05-01T02:42:01.719Z,100785.38
2019-05-01T02:44:41.615Z,100779.97
2019-05-01T02:47:13.195Z,100772.78
2019-05-01T02:49:47.794Z,100771.02
2019-05-01T02:52:18.004Z,100771.16
2019-05-01T02:54:48.470Z,100765.97
2019-05-01T02:57:20.139Z,100761.95
2019-05-01T02:59:51.930Z,100760.36
2019-05-01T03:02:22.995Z,100759.61
2019-05-01T03:04:52.782Z,100754.74
2019-05-01T03:07:23.081Z,100755.56
2019-05-01T03:09:52.676Z,100751.57
2019-05-01T03:12:24.280Z,100751.57
2019-05-01T03:14:55.833Z,100751.12
2019-05-01T03:17:37.559Z,100755.58
2019-05-01T03:20:11.762Z,100743.50
2019-05-01T03:22:58.503Z,100744.41
2019-05-01T03:25:30.098Z,100745.75
2019-05-01T03:28:00.355Z,100741.83
2019-05-01T03:30:29.201Z,100738.03
2019-05-01T03:32:57.895Z,100734.27
2019-05-01T03:35:29.250Z,100729.69
2019-05-01T03:37:58.311Z,100724.00
2019-05-01T03:40:28.072Z,100727.66
2019-05-01T03:42:58.943Z,100725.78
2019-05-01T03:45:34.134Z,100728.28
2019-05-01T03:48:01.357Z,100729.88
2019-05-01T03:50:30.631Z,100718.86
2019-05-01T03:53:01.008Z,100723.43
2019-05-01T03:55:32.958Z,100723.48
2019-05-01T03:58:02.222Z,100725.28
2019-05-01T04:00:41.688Z,100724.72
2019-05-01T04:06:13.431Z,100715.09
2019-05-01T04:08:42.246Z,100719.45
2019-05-01T04:11:11.257Z,100718.87
2019-05-01T04:13:40.719Z,100719.47
2019-05-01T04:16:09.979Z,100717.22
2019-05-01T04:18:39.074Z,100721.42
2019-05-01T04:21:09.690Z,100716.14
2019-05-01T04:23:40.520Z,100725.25
2019-05-01T04:26:09.780Z,100716.24
2019-05-01T04:28:46.378Z,100717.12
2019-05-01T04:31:22.877Z,100724.44
2019-05-01T04:34:00.323Z,100729.22
2019-05-01T04:36:39.089Z,100727.19
2019-05-01T04:39:08.419Z,100730.90
2019-05-01T04:41:37.330Z,100726.80
2019-05-01T04:44:06.429Z,100727.84
2019-05-01T04:46:36.033Z,100722.16
2019-05-01T04:49:04.986Z,100730.30
2019-05-01T04:51:33.815Z,100728.92
2019-05-01T04:54:02.844Z,100731.91
2019-05-01T04:56:31.954Z,100727.11
2019-05-01T04:59:00.826Z,100736.08
2019-05-01T05:01:35.293Z,100738.02
2019-05-01T05:04:04.021Z,100737.86
2019-05-01T05:06:32.589Z,100740.84
2019-05-01T05:09:01.688Z,100741.58
2019-05-01T05:11:47.116Z,100750.75
2019-05-01T05:14:17.792Z,100747.83
2019-05-01T05:16:48.230Z,100750.39
2019-05-01T05:19:17.763Z,100746.18
2019-05-01T05:21:46.473Z,100750.40
2019-05-01T05:24:15.493Z,100749.59
2019-05-01T05:26:45.224Z,100754.72
2019-05-01T05:29:17.597Z,100749.55
2019-05-01T05:31:46.795Z,100757.30
2019-05-01T05:34:18.172Z,100756.20
2019-05-01T05:36:49.144Z,100754.76
2019-05-01T05:39:20.577Z,100757.16
2019-05-01T05:41:51.239Z,100753.00
2019-05-01T05:44:20.509Z,100748.13
2019-05-01T05:46:49.312Z,100745.97
2019-05-01T05:49:18.191Z,100752.36
2019-05-01T05:51:54.380Z,100740.07
2019-05-01T05:54:32.955Z,100741.78
2019-05-01T05:57:15.633Z,100745.66
2019-05-01T05:59:50.315Z,100739.78
2019-05-01T06:02:26.722Z,100744.41
2019-05-01T06:05:15.235Z,100742.97
2019-05-01T06:07:48.472Z,100745.87
2019-05-01T06:10:23.181Z,100742.80
2019-05-01T06:13:07.005Z,100731.13
2019-05-01T06:15:55.488Z,100736.01
2019-05-01T06:18:26.064Z,100741.83
2019-05-01T06:21:12.979Z,100736.83
2019-05-01T06:23:43.982Z,100739.55
2019-05-01T06:26:32.045Z,100734.22
2019-05-01T06:29:03.687Z,100745.78
2019-05-01T06:31:33.310Z,100744.31
2019-05-01T06:34:02.514Z,100749.20
2019-05-01T06:36:31.891Z,100752.05
2019-05-01T06:39:01.589Z,100744.47
2019-05-01T06:41:33.831Z,100743.55
2019-05-01T06:44:07.382Z,100740.45
2019-05-01T06:46:42.450Z,100745.41
2019-05-01T06:49:15.531Z,100743.45
2019-05-01T06:51:47.926Z,100741.31
2019-05-01T06:54:17.750Z,100747.00
2019-05-01T06:56:47.510Z,100747.34
2019-05-01T06:59:16.753Z,100748.08
2019-05-01T07:01:46.637Z,100751.64
2019-05-01T07:04:15.953Z,100748.52
2019-05-01T07:06:44.670Z,100757.31
2019-05-01T07:09:27.353Z,100757.30
2019-05-01T07:11:52.765Z,100757.77
2019-05-01T07:14:18.358Z,100754.16
2019-05-01T07:17:01.022Z,100758.90
2019-05-01T07:19:44.568Z,100762.59
2019-05-01T07:23:30.330Z,100770.23
2019-05-01T07:25:27.392Z,100758.50
2019-05-01T07:27:58.449Z,100758.55
2019-05-01T07:30:31.583Z,100758.41
2019-05-01T07:33:02.600Z,100775.98
2019-05-01T07:35:36.755Z,100766.39
2019-05-01T07:38:23.701Z,100777.31
2019-05-01T07:40:53.114Z,100770.16
2019-05-01T07:43:42.502Z,100769.23
2019-05-01T07:46:18.383Z,100783.69
2019-05-01T07:48:47.355Z,100783.00
2019-05-01T07:51:16.457Z,100788.02
2019-05-01T07:53:46.236Z,100786.35
2019-05-01T07:56:17.176Z,100786.70
2019-05-01T07:58:47.465Z,100771.40
2019-05-01T08:01:19.991Z,100774.95
2019-05-01T08:03:48.363Z,100774.93
2019-05-01T08:06:21.780Z,100772.00
2019-05-01T08:08:47.328Z,100775.82
2019-05-01T08:11:16.048Z,100778.85
2019-05-01T08:13:44.629Z,100784.36
2019-05-01T08:16:13.283Z,100773.19
2019-05-01T08:18:59.010Z,100780.19
2019-05-01T08:21:39.723Z,100786.72
2019-05-01T08:24:08.778Z,100788.05
2019-05-01T08:26:39.777Z,100780.94
2019-05-01T08:29:27.392Z,100781.58
2019-05-01T08:32:06.674Z,100788.20
2019-05-01T08:34:48.440Z,100781.86
2019-05-01T08:37:07.082Z,100784.93
2019-05-01T08:39:39.666Z,100777.05
2019-05-01T08:42:07.021Z,100775.03
2019-05-01T08:44:53.345Z,100773.81
2019-05-01T08:47:27.708Z,100777.97
2019-05-01T08:50:14.479Z,100774.52
2019-05-01T08:52:47.409Z,100771.98
2019-05-01T08:55:13.542Z,100769.44
2019-05-01T08:57:42.150Z,100771.53
2019-05-01T09:00:11.172Z,100771.23
2019-05-01T09:02:41.680Z,100774.97
2019-05-01T09:05:27.799Z,100770.66
2019-05-01T09:07:41.523Z,100774.27
2019-05-01T09:10:10.501Z,100772.49
2019-05-01T09:12:42.690Z,100775.02
2019-05-01T09:15:12.839Z,100763.47
2019-05-01T09:17:40.268Z,100758.02
2019-05-01T09:20:09.596Z,100759.13
2019-05-01T09:22:38.286Z,100759.09
2019-05-01T09:25:08.282Z,100756.64
2019-05-01T09:27:41.584Z,100759.44
2019-05-01T09:30:21.975Z,100763.83
2019-05-01T09:32:54.075Z,100757.52
2019-05-01T09:35:19.838Z,100763.14
2019-05-01T09:37:48.530Z,100761.05
2019-05-01T09:40:17.549Z,100754.28
2019-05-01T09:42:46.161Z,100749.14
2019-05-01T09:45:17.132Z,100755.94
2019-05-01T09:47:45.931Z,100748.41
2019-05-01T09:50:15.935Z,100742.63
2019-05-01T09:52:59.361Z,100744.72
2019-05-01T09:55:38.643Z,100743.58
2019-05-01T09:58:07.240Z,100735.06
2019-05-01T10:00:35.976Z,100743.36
2019-05-01T10:03:04.926Z,100746.11
2019-05-01T10:05:33.530Z,100742.84
2019-05-01T10:08:04.086Z,100743.86
2019-05-01T10:10:32.630Z,100747.59
2019-05-01T10:13:01.209Z,100742.42
2019-05-01T10:15:29.768Z,100742.14
2019-05-01T10:17:58.491Z,100737.61
2019-05-01T10:20:30.277Z,100730.31
2019-05-01T10:23:02.011Z,100724.41
2019-05-01T10:25:30.577Z,100718.14
2019-05-01T10:28:07.293Z,100712.80
2019-05-01T10:30:44.246Z,100714.63
2019-05-01T10:33:20.550Z,100718.59
2019-05-01T10:36:07.220Z,100720.47
2019-05-01T10:38:40.009Z,100715.56
2019-05-01T10:41:09.086Z,100716.12
2019-05-01T10:43:36.915Z,100705.36
2019-05-01T10:46:05.470Z,100708.89
2019-05-01T10:48:34.051Z,100695.56
2019-05-01T10:51:02.707Z,100684.89
2019-05-01T10:53:31.369Z,100681.02
2019-05-01T10:55:59.936Z,100690.84
2019-05-01T10:58:30.041Z,100680.20
2019-05-01T11:01:01.853Z,100683.19
2019-05-01T11:03:30.417Z,100678.52
2019-05-01T11:06:01.868Z,100689.75
2019-05-01T11:08:30.883Z,100682.11
2019-05-01T11:11:00.420Z,100676.70
2019-05-01T11:13:29.058Z,100677.87
2019-05-01T11:15:59.928Z,100673.86
2019-05-01T11:18:30.107Z,100674.01
2019-05-01T11:21:00.271Z,100677.14
2019-05-01T11:23:31.888Z,100673.36
2019-05-01T11:26:00.765Z,100676.12
2019-05-01T11:28:30.880Z,100675.50
2019-05-01T11:31:02.250Z,100669.64
2019-05-01T11:33:41.173Z,100666.72
2019-05-01T11:36:20.194Z,100660.08
2019-05-01T11:39:08.844Z,100666.77
2019-05-01T11:41:47.698Z,100658.42
2019-05-01T11:44:16.309Z,100653.89
2019-05-01T11:46:44.927Z,100650.94
2019-05-01T11:49:13.669Z,100651.42
2019-05-01T11:51:42.393Z,100650.70
2019-05-01T11:54:10.977Z,100646.61
2019-05-01T11:56:39.533Z,100642.05
2019-05-01T11:59:08.221Z,100644.47
2019-05-01T12:01:36.943Z,100645.81
2019-05-01T12:04:05.540Z,100636.61
2019-05-01T12:06:34.467Z,100638.88
2019-05-01T12:09:03.395Z,100635.14
2019-05-01T12:11:33.637Z,100631.24
2019-05-01T12:14:03.618Z,100633.27
2019-05-01T12:16:50.722Z,100628.45
2019-05-01T12:19:20.459Z,100627.07
2019-05-01T12:21:49.019Z,100609.09
2019-05-01T12:24:17.577Z,100615.55
2019-05-01T12:26:46.297Z,100608.39
2019-05-01T12:29:14.907Z,100609.73
2019-05-01T12:31:43.865Z,100603.74
2019-05-01T12:34:12.421Z,100608.52
2019-05-01T12:36:42.251Z,100608.54
2019-05-01T12:39:15.425Z,100606.00
2019-05-01T12:41:45.646Z,100610.37
2019-05-01T12:44:14.205Z,100599.63
2019-05-01T12:46:44.516Z,100605.34
2019-05-01T12:49:15.820Z,100605.30
2019-05-01T12:51:45.862Z,100594.59
2019-05-01T12:54:25.223Z,100600.15
2019-05-01T12:56:58.154Z,100596.87
2019-05-01T12:59:28.986Z,100599.56
2019-05-01T13:01:59.318Z,100594.87
2019-05-01T13:04:27.853Z,100597.50
2019-05-01T13:06:58.625Z,100584.55
2019-05-01T13:09:30.678Z,100586.34
2019-05-01T13:12:00.775Z,100580.34
2019-05-01T13:14:30.867Z,100578.22
2019-05-01T13:17:02.162Z,100576.98
2019-05-01T13:19:30.784Z,100570.41
2019-05-01T13:22:00.948Z,100572.67
2019-05-01T13:24:32.268Z,100580.44
2019-05-01T13:27:11.487Z,100576.28
2019-05-01T13:29:41.736Z,100572.08
2019-05-01T13:32:23.554Z,100571.19
2019-05-01T13:34:52.574Z,100571.45
2019-05-01T13:37:21.607Z,100564.60
2019-05-01T13:39:50.216Z,100563.52
2019-05-01T13:42:18.805Z,100552.67
2019-05-01T13:44:47.428Z,100558.28
2019-05-01T13:47:16.055Z,100550.75
2019-05-01T13:49:44.673Z,100553.39
2019-05-01T13:52:13.287Z,100545.59
2019-05-01T13:54:41.995Z,100545.94
2019-05-01T13:57:11.220Z,100549.30
2019-05-01T13:59:40.246Z,100543.88
2019-05-01T14:02:09.262Z,100540.08
2019-05-01T14:04:37.826Z,100539.01
2019-05-01T14:07:16.407Z,100544.03
2019-05-01T14:09:38.229Z,100546.44
2019-05-01T14:12:07.224Z,100535.53
2019-05-01T14:14:35.785Z,100542.25
2019-05-01T14:17:04.500Z,100537.20
2019-05-01T14:19:34.962Z,100539.22
2019-05-01T14:22:05.222Z,100535.05
2019-05-01T14:24:37.922Z,100527.35
2019-05-01T14:27:07.851Z,100524.86
2019-05-01T14:29:36.684Z,100525.70
2019-05-01T14:32:05.380Z,100514.80
2019-05-01T14:34:34.022Z,100514.89
2019-05-01T14:37:02.638Z,100513.93
2019-05-01T14:39:31.258Z,100516.48
2019-05-01T14:41:59.811Z,100516.83
2019-05-01T14:44:36.467Z,100509.03
2019-05-01T14:47:00.287Z,100508.90
2019-05-01T14:49:32.142Z,100502.90
2019-05-01T14:52:01.123Z,100492.91
2019-05-01T14:54:32.545Z,100502.25
2019-05-01T14:57:01.111Z,100506.75
2019-05-01T14:59:32.696Z,100502.77
2019-05-01T15:02:01.320Z,100492.85
2019-05-01T15:04:29.925Z,100496.47
2019-05-01T15:07:00.069Z,100489.33
2019-05-01T15:09:30.140Z,100494.22
2019-05-01T15:12:00.212Z,100488.27
2019-05-01T15:14:34.457Z,100484.72
2019-05-01T15:17:21.266Z,100488.86
2019-05-01T15:19:51.471Z,100484.27
2019-05-01T15:22:20.021Z,100485.00
2019-05-01T15:24:48.575Z,100480.91
2019-05-01T15:27:17.128Z,100477.66
2019-05-01T15:29:45.734Z,100479.70
2019-05-01T15:32:14.238Z,100472.08
2019-05-01T15:34:42.884Z,100470.89
2019-05-01T15:37:11.490Z,100470.92
2019-05-01T15:39:47.988Z,100461.25
2019-05-01T15:42:23.982Z,100460.52
2019-05-01T15:44:52.525Z,100459.30
2019-05-01T15:47:21.114Z,100459.91
2019-05-01T15:49:49.730Z,100453.03
2019-05-01T15:52:18.351Z,100451.38
2019-05-01T15:54:46.931Z,100465.84
2019-05-01T15:57:15.694Z,100457.67
2019-05-01T15:59:44.310Z,100456.80
2019-05-01T16:02:13.001Z,100455.78
2019-05-01T16:04:41.554Z,100454.13
2019-05-01T16:07:10.253Z,100458.01
2019-05-01T16:09:38.967Z,100454.88
2019-05-01T16:12:12.257Z,100450.69
2019-05-01T16:14:41.166Z,100451.37
2019-05-01T16:17:09.806Z,100448.00
2019-05-01T16:19:38.338Z,100446.45
2019-05-01T16:22:06.956Z,100447.77
2019-05-01T16:24:35.513Z,100446.45
2019-05-01T16:27:04.506Z,100439.48
2019-05-01T16:29:33.136Z,100440.05
2019-05-01T16:32:01.693Z,100436.58
2019-05-01T16:34:30.391Z,100435.61
2019-05-01T16:36:58.953Z,100434.39
2019-05-01T16:39:45.306Z,100435.75
2019-05-01T16:42:13.960Z,100434.63
2019-05-01T16:44:42.569Z,100430.89
2019-05-01T16:47:11.142Z,100430.36
2019-05-01T16:49:39.690Z,100430.67
2019-05-01T16:52:08.508Z,100427.42
2019-05-01T16:54:37.057Z,100435.94
2019-05-01T16:57:06.912Z,100424.38
2019-05-01T16:59:35.819Z,100420.95
2019-05-01T17:02:22.870Z,100418.01
2019-05-01T17:04:53.449Z,100421.33
2019-05-01T17:07:23.657Z,100412.34
2019-05-01T17:09:59.347Z,100421.81
2019-05-01T17:12:29.663Z,100414.95
2019-05-01T17:14:58.523Z,100420.09
2019-05-01T17:17:27.836Z,100413.47
2019-05-01T17:19:58.296Z,100420.02
2019-05-01T17:22:29.267Z,100418.01
2019-05-01T17:24:58.243Z,100413.97
2019-05-01T17:27:29.354Z,100413.26
2019-05-01T17:29:57.900Z,100412.36
2019-05-01T17:32:28.535Z,100414.25
2019-05-01T17:35:01.881Z,100413.59
2019-05-01T17:37:31.715Z,100422.02
2019-05-01T17:40:00.280Z,100417.98
2019-05-01T17:42:32.960Z,100411.38
2019-05-01T17:45:01.949Z,100408.84
2019-05-01T17:47:30.877Z,100408.48
2019-05-01T17:50:02.169Z,100405.75
2019-05-01T17:52:30.753Z,100416.61
2019-05-01T17:55:01.392Z,100419.16
2019-05-01T17:57:30.176Z,100419.06
2019-05-01T18:00:01.881Z,100418.53
2019-05-01T18:02:32.435Z,100421.66
2019-05-01T18:05:02.641Z,100416.17
2019-05-01T18:07:33.288Z,100412.67
2019-05-01T18:10:01.890Z,100412.20
2019-05-01T18:12:30.515Z,100411.20
2019-05-01T18:14:59.076Z,100415.97
2019-05-01T18:17:29.741Z,100415.52
2019-05-01T18:19:58.351Z,100417.06
2019-05-01T18:22:48.043Z,100416.66
2019-05-01T18:25:28.138Z,100425.42
2019-05-01T18:27:59.068Z,100420.36
2019-05-01T18:30:29.338Z,100420.19
2019-05-01T18:32:57.967Z,100419.00
2019-05-01T18:35:27.724Z,100420.68
2019-05-01T18:37:58.280Z,100421.34
2019-05-01T18:40:38.129Z,100419.78
2019-05-01T18:43:07.359Z,100418.28
2019-05-01T18:45:47.939Z,100414.36
2019-05-01T18:48:17.022Z,100417.48
2019-05-01T18:50:49.424Z,100422.34
2019-05-01T18:53:16.475Z,100418.52
2019-05-01T18:55:45.184Z,100417.41
2019-05-01T18:58:13.930Z,100419.83
2019-05-01T19:00:43.254Z,100420.49
2019-05-01T19:03:12.375Z,100422.55
2019-05-01T19:05:43.165Z,100427.59
2019-05-01T19:08:11.378Z,100424.86
2019-05-01T19:10:40.425Z,100427.92
2019-05-01T19:13:09.211Z,100428.39
2019-05-01T19:15:38.535Z,100429.97
2019-05-01T19:18:07.554Z,100424.73
2019-05-01T19:20:36.197Z,100426.75
2019-05-01T19:23:04.908Z,100429.91
2019-05-01T19:25:33.518Z,100426.36
2019-05-01T19:28:03.903Z,100422.70
2019-05-01T19:30:32.682Z,100421.83
2019-05-01T19:33:01.485Z,100421.82
2019-05-01T19:35:33.907Z,100421.88
2019-05-01T19:38:00.514Z,100417.97
2019-05-01T19:40:30.694Z,100427.43
2019-05-01T19:43:00.281Z,100423.36
2019-05-01T19:45:29.051Z,100424.34
2019-05-01T19:47:57.970Z,100425.48
2019-05-01T19:50:26.676Z,100424.48
2019-05-01T19:52:56.015Z,100427.40
2019-05-01T19:55:24.620Z,100423.37
2019-05-01T19:57:53.257Z,100424.19
2019-05-01T20:00:49.321Z,100421.11
2019-05-01T20:03:18.052Z,100420.59
2019-05-01T20:05:46.665Z,100416.55
2019-05-01T20:08:15.366Z,100420.23
2019-05-01T20:10:44.097Z,100417.13
2019-05-01T20:13:13.310Z,100416.94
2019-05-01T20:15:42.358Z,100413.51
2019-05-01T20:18:11.073Z,100413.93
2019-05-01T20:20:39.695Z,100409.95
2019-05-01T20:23:08.530Z,100415.57
2019-05-01T20:25:37.087Z,100415.34
2019-05-01T20:28:05.708Z,100411.95
2019-05-01T20:30:34.783Z,100407.59
2019-05-01T20:33:03.755Z,100403.61
2019-05-01T20:35:34.467Z,100408.64
2019-05-01T20:38:03.119Z,100401.11
2019-05-01T20:40:31.788Z,100392.00
2019-05-01T20:43:01.051Z,100401.20
2019-05-01T20:45:30.959Z,100397.86
2019-05-01T20:48:00.084Z,100400.61
2019-05-01T20:50:30.165Z,100392.13
2019-05-01T20:52:59.727Z,100392.88
2019-05-01T20:55:28.586Z,100386.98
2019-05-01T20:58:16.702Z,100386.45
2019-05-01T21:00:48.064Z,100385.39
2019-05-01T21:03:18.153Z,100387.44
2019-05-01T21:05:55.155Z,100379.80
2019-05-01T21:08:40.511Z,100378.50
2019-05-01T21:11:12.849Z,100378.55
2019-05-01T21:13:41.089Z,100385.94
2019-05-01T21:16:09.632Z,100381.48
2019-05-01T21:18:38.285Z,100385.94
2019-05-01T21:21:06.838Z,100385.39
2019-05-01T21:23:35.398Z,100385.62
2019-05-01T21:26:04.058Z,100384.40
2019-05-01T21:28:34.090Z,100379.02
2019-05-01T21:31:03.899Z,100379.55
2019-05-01T21:33:33.953Z,100373.81
2019-05-01T21:36:04.809Z,100378.24
2019-05-01T21:38:33.967Z,100377.85
2019-05-01T21:41:02.898Z,100373.95
2019-05-01T21:43:33.117Z,100374.16
2019-05-01T21:46:03.814Z,100378.58
2019-05-01T21:48:33.443Z,100376.20
2019-05-01T21:51:05.457Z,100367.98
2019-05-01T21:53:32.879Z,100375.52
2019-05-01T21:56:06.104Z,100372.58
2019-05-01T21:58:35.307Z,100373.14
2019-05-01T22:01:03.513Z,100373.77
2019-05-01T22:03:32.151Z,100368.86
2019-05-01T22:06:00.758Z,100365.55
2019-05-01T22:08:50.473Z,100368.11
2019-05-01T22:11:19.189Z,100363.98
2019-05-01T22:13:47.848Z,100363.23
2019-05-01T22:16:22.341Z,100361.31
2019-05-01T22:18:59.196Z,100355.72
2019-05-01T22:21:38.793Z,100360.17
2019-05-01T22:24:25.767Z,100358.97
2019-05-01T22:27:04.828Z,100358.19
2019-05-01T22:29:40.862Z,100361.95
2019-05-01T22:32:14.374Z,100358.86
2019-05-01T22:34:50.877Z,100359.06
2019-05-01T22:37:19.411Z,100354.34
2019-05-01T22:39:55.606Z,100356.23
2019-05-01T22:42:24.137Z,100354.68
2019-05-01T22:44:52.756Z,100348.02
2019-05-01T22:47:21.283Z,100347.09
2019-05-01T22:49:49.846Z,100346.42
2019-05-01T22:52:18.375Z,100340.59
2019-05-01T22:54:48.844Z,100335.02
2019-05-01T22:57:18.845Z,100339.45
2019-05-01T22:59:47.555Z,100328.93
2019-05-01T23:02:33.678Z,100325.53
2019-05-01T23:05:02.501Z,100327.88
2019-05-01T23:07:31.110Z,100326.20
2019-05-01T23:10:03.241Z,100320.52
2019-05-01T23:12:32.937Z,100327.86
2019-05-01T23:15:03.662Z,100322.52
2019-05-01T23:17:45.845Z,100318.96
2019-05-01T23:20:16.089Z,100317.78
2019-05-01T23:22:45.019Z,100316.69
2019-05-01T23:25:14.659Z,100309.17
2019-05-01T23:27:43.265Z,100310.19
2019-05-01T23:30:15.097Z,100305.48
2019-05-01T23:32:43.976Z,100307.08
2019-05-01T23:35:12.968Z,100304.04
2019-05-01T23:37:41.601Z,100297.74
2019-05-01T23:40:15.139Z,100299.36
2019-05-01T23:42:43.387Z,100293.41
2019-05-01T23:45:11.972Z,100294.56
2019-05-01T23:47:43.760Z,100294.37
2019-05-01T23:50:11.451Z,100293.91
2019-05-01T23:52:40.058Z,100283.73
2019-05-01T23:55:08.937Z,100286.89
2019-05-01T23:57:37.547Z,100284.50
